Time;durP1;ratioP1;P1;durP2;ratioP2;P2;SDS_P1;SDS_P2;PMS_P1;PMS_P2;Temp;Humidity;BMP_temperature;BMP_pressure;BME280_temperature;BME280_humidity;BME280_pressure;Samples;Min_cycle;Max_cycle;Signal;HPM_P1;HPM_P2
2023/07/08 00:00:30;;;;;;;2.57;1.13;;;;;;;21.84;100.00;95402.47;5094256;28;20470;-60
2023/07/08 00:02:59;;;;;;;2.57;1.67;;;;;;;21.70;100.00;95400.13;5094915;28;20992;-60
2023/07/08 00:05:27;;;;;;;1.03;0.90;;;;;;;21.71;100.00;95393.59;5094278;28;20503;-60
2023/07/08 00:07:55;;;;;;;1.57;1.33;;;;;;;21.55;100.00;95384.63;5094412;28;20440;-59
2023/07/08 00:10:25;;;;;;;0.63;0.60;;;;;;;21.66;100.00;95376.84;5094687;28;20437;-60
2023/07/08 00:12:58;;;;;;;0.83;0.83;;;;;;;21.31;100.00;95376.47;5094110;28;20443;-61
2023/07/08 00:15:29;;;;;;;1.30;1.20;;;;;;;21.26;100.00;95374.81;5069371;28;20511;-61
2023/07/08 00:17:59;;;;;;;1.03;0.93;;;;;;;21.27;100.00;95365.59;5093769;28;20432;-60
2023/07/08 00:20:33;;;;;;;1.07;0.83;;;;;;;21.24;100.00;95368.97;5093993;28;20437;-60
2023/07/08 00:23:01;;;;;;;3.13;2.00;;;;;;;21.16;100.00;95359.06;5087646;28;20436;-60
2023/07/08 00:25:31;;;;;;;3.60;1.40;;;;;;;21.51;100.00;95354.81;5094041;28;20567;-60
2023/07/08 00:27:59;;;;;;;1.57;1.47;;;;;;;21.57;100.00;95360.78;5093877;28;20433;-60
2023/07/08 00:30:31;;;;;;;4.60;1.63;;;;;;;21.22;100.00;95352.34;5094295;28;20441;-61
2023/07/08 00:33:02;;;;;;;1.53;1.43;;;;;;;20.64;100.00;95280.69;5093886;28;20447;-61
2023/07/08 00:35:34;;;;;;;1.13;1.03;;;;;;;20.68;100.00;95273.50;5094058;28;20451;-61
2023/07/08 00:38:02;;;;;;;5.27;1.97;;;;;;;21.20;100.00;95349.16;5094020;28;20940;-60
2023/07/08 00:40:32;;;;;;;1.13;1.13;;;;;;;21.20;100.00;95359.19;5093593;28;20811;-60
2023/07/08 00:43:06;;;;;;;3.43;1.80;;;;;;;21.03;100.00;95368.22;5093876;28;20445;-61
2023/07/08 00:45:43;;;;;;;1.53;1.43;;;;;;;21.03;100.00;95343.94;5093518;28;20555;-60
2023/07/08 00:48:34;;;;;;;0.93;0.90;;;;;;;21.09;100.00;95372.31;5093675;28;20465;-61
2023/07/08 00:51:03;;;;;;;1.10;1.00;;;;;;;21.03;100.00;95370.09;5067694;28;20445;-61
2023/07/08 00:53:33;;;;;;;1.10;1.00;;;;;;;21.36;100.00;95373.56;5093950;28;20444;-60
2023/07/08 00:56:07;;;;;;;0.83;0.60;;;;;;;21.13;100.00;95362.41;5093508;28;20502;-60
2023/07/08 00:58:41;;;;;;;1.17;1.00;;;;;;;21.19;100.00;95374.56;5092993;28;20464;-61
2023/07/08 01:01:10;;;;;;;0.83;0.80;;;;;;;21.32;100.00;95373.47;5093478;28;20856;-61
2023/07/08 01:03:48;;;;;;;1.10;0.90;;;;;;;21.19;100.00;95371.09;5092646;28;20504;-60
2023/07/08 01:06:18;;;;;;;1.60;0.77;;;;;;;21.23;100.00;95370.06;5093724;28;20828;-61
2023/07/08 01:08:46;;;;;;;0.90;0.90;;;;;;;21.23;100.00;95353.91;5093363;28;20558;-60
2023/07/08 01:11:15;;;;;;;2.90;1.30;;;;;;;20.99;100.00;95369.22;5093219;28;20437;-61
2023/07/08 01:13:45;;;;;;;2.30;2.10;;;;;;;21.09;100.00;95364.22;5066290;28;20801;-60
2023/07/08 01:16:16;;;;;;;2.13;1.10;;;;;;;20.98;100.00;95364.94;5093039;28;20444;-60
2023/07/08 01:18:52;;;;;;;1.30;1.20;;;;;;;21.00;100.00;95363.47;5093150;28;20928;-61
2023/07/08 01:21:32;;;;;;;1.07;0.80;;;;;;;21.21;100.00;95363.44;5092829;28;21029;-61
2023/07/08 01:24:04;;;;;;;1.07;0.97;;;;;;;21.39;100.00;95344.03;5092740;28;20497;-61
2023/07/08 01:26:36;;;;;;;0.60;0.60;;;;;;;21.89;100.00;95357.19;5093099;28;20480;-62
2023/07/08 01:29:04;;;;;;;0.80;0.73;;;;;;;22.00;100.00;95346.72;5092300;28;20489;-60
2023/07/08 01:31:33;;;;;;;0.60;0.50;;;;;;;21.85;100.00;95342.81;5066604;28;20429;-60
2023/07/08 01:34:01;;;;;;;0.83;0.83;;;;;;;21.73;100.00;95337.38;5092593;28;20441;-60
2023/07/08 01:36:35;;;;;;;1.50;1.40;;;;;;;21.88;100.00;95333.25;5092984;28;20879;-61
2023/07/08 01:39:05;;;;;;;0.77;0.77;;;;;;;21.98;99.53;95333.56;5092608;28;20441;-61
2023/07/08 01:41:33;;;;;;;0.90;0.70;;;;;;;21.50;100.00;95352.47;5092546;28;20462;-61
2023/07/08 01:44:01;;;;;;;3.60;0.80;;;;;;;21.56;100.00;95344.91;5092086;28;21025;-61
2023/07/08 01:46:31;;;;;;;1.77;1.67;;;;;;;20.89;100.00;95343.50;5092796;28;20906;-61
2023/07/08 01:49:02;;;;;;;2.20;1.67;;;;;;;20.79;100.00;95349.31;5078671;28;20452;-61
2023/07/08 01:51:30;;;;;;;2.30;1.37;;;;;;;20.60;100.00;95352.47;5092627;28;21037;-61
2023/07/08 01:53:58;;;;;;;1.07;0.97;;;;;;;20.69;100.00;95322.78;5091868;28;20990;-61
2023/07/08 01:56:28;;;;;;;2.93;1.10;;;;;;;20.89;100.00;95340.78;5092533;28;20441;-61
2023/07/08 01:58:56;;;;;;;3.90;1.93;;;;;;;20.56;100.00;95340.03;5091912;28;20530;-60
2023/07/08 02:01:25;;;;;;;2.77;0.93;;;;;;;20.72;100.00;95341.75;5080620;28;20481;-61
2023/07/08 02:03:53;;;;;;;1.53;1.43;;;;;;;20.75;100.00;95340.28;5090770;28;20437;-61
2023/07/08 02:06:21;;;;;;;1.33;0.60;;;;;;;20.87;100.00;95345.72;5092075;28;20476;-60
2023/07/08 02:08:51;;;;;;;3.00;1.63;;;;;;;20.75;100.00;95348.38;5091285;28;20531;-62
2023/07/08 02:11:19;;;;;;;2.53;1.27;;;;;;;20.30;100.00;95281.03;5092559;28;20477;-62
2023/07/08 02:13:49;;;;;;;1.80;1.70;;;;;;;20.63;100.00;95353.72;5065635;28;20948;-61
2023/07/08 02:16:17;;;;;;;4.13;1.20;;;;;;;20.74;100.00;95344.91;5089987;28;20444;-62
2023/07/08 02:18:46;;;;;;;4.10;1.90;;;;;;;20.70;100.00;95360.16;5092489;28;20440;-62
2023/07/08 02:21:17;;;;;;;1.50;1.40;;;;;;;20.49;100.00;95361.31;5092312;28;20432;-62
2023/07/08 02:23:50;;;;;;;1.03;0.67;;;;;;;20.34;100.00;95357.28;5092222;28;20856;-63
2023/07/08 02:26:18;;;;;;;2.00;0.97;;;;;;;20.69;100.00;95373.97;5091827;28;20520;-64
2023/07/08 02:28:47;;;;;;;1.10;1.10;;;;;;;20.84;100.00;95366.03;5092060;28;20445;-63
2023/07/08 02:31:17;;;;;;;1.17;1.07;;;;;;;20.40;100.00;95350.59;5091803;28;20462;-64
2023/07/08 02:33:46;;;;;;;1.63;1.53;;;;;;;20.31;100.00;95374.13;5091891;28;20470;-64
2023/07/08 02:36:14;;;;;;;1.53;1.43;;;;;;;20.37;100.00;95369.31;5091648;28;20468;-64
2023/07/08 02:38:42;;;;;;;5.50;1.67;;;;;;;20.60;100.00;95378.63;5091440;28;20959;-64
2023/07/08 02:41:11;;;;;;;2.63;2.50;;;;;;;20.04;100.00;95340.41;5091573;28;20472;-64
2023/07/08 02:43:40;;;;;;;1.63;1.40;;;;;;;20.20;100.00;95381.78;5091441;28;20493;-64
2023/07/08 02:46:08;;;;;;;9.20;0.83;;;;;;;20.12;100.00;95379.13;5091575;28;20476;-64
2023/07/08 02:48:38;;;;;;;2.00;1.90;;;;;;;20.00;100.00;95361.03;5091685;28;20440;-65
2023/07/08 02:51:08;;;;;;;3.90;0.93;;;;;;;20.07;100.00;95372.06;5066012;28;20451;-64
2023/07/08 02:53:36;;;;;;;2.40;0.87;;;;;;;20.26;100.00;95363.56;5091230;28;20454;-64
2023/07/08 02:56:05;;;;;;;2.33;0.60;;;;;;;19.92;100.00;95375.31;5092158;28;20440;-64
2023/07/08 02:58:34;;;;;;;1.17;1.07;;;;;;;19.90;100.00;95374.88;5091713;28;20537;-63
2023/07/08 03:01:02;;;;;;;2.20;2.10;;;;;;;19.62;100.00;95371.88;5091589;28;20440;-64
2023/07/08 03:03:31;;;;;;;1.33;1.00;;;;;;;19.57;100.00;95365.88;5091617;28;20527;-63
2023/07/08 03:06:05;;;;;;;1.10;1.00;;;;;;;20.00;100.00;95377.16;5091994;28;20472;-64
2023/07/08 03:08:33;;;;;;;2.40;2.20;;;;;;;19.83;100.00;95388.03;5090767;28;20869;-64
2023/07/08 03:11:03;;;;;;;1.83;1.63;;;;;;;19.45;100.00;95389.97;5091901;28;20444;-65
2023/07/08 03:13:32;;;;;;;2.60;1.60;;;;;;;19.09;100.00;95390.38;5091050;28;20437;-64
2023/07/08 03:16:02;;;;;;;5.53;2.17;;;;;;;18.89;100.00;95386.50;5092014;28;20440;-65
2023/07/08 03:18:31;;;;;;;3.23;3.13;;;;;;;19.35;100.00;95390.31;5091493;28;20432;-64
2023/07/08 03:20:59;;;;;;;2.10;2.00;;;;;;;19.40;100.00;95395.53;5092046;28;20436;-65
2023/07/08 03:23:29;;;;;;;3.10;2.20;;;;;;;19.24;100.00;95392.56;5091364;28;20471;-64
2023/07/08 03:25:58;;;;;;;1.40;1.20;;;;;;;19.19;100.00;95392.72;5091204;28;20464;-63
2023/07/08 03:28:26;;;;;;;1.10;1.00;;;;;;;19.15;100.00;95389.09;5068639;28;20497;-64
2023/07/08 03:30:55;;;;;;;0.70;0.70;;;;;;;19.30;100.00;95393.94;5094780;28;20436;-64
2023/07/08 03:33:23;;;;;;;1.83;1.73;;;;;;;19.13;100.00;95395.91;5095283;28;20455;-65
2023/07/08 03:35:52;;;;;;;0.90;0.90;;;;;;;19.03;100.00;95397.81;5094682;28;20436;-63
2023/07/08 03:38:20;;;;;;;3.53;2.70;;;;;;;18.86;100.00;95399.75;5094686;28;20440;-64
2023/07/08 03:40:50;;;;;;;2.30;1.80;;;;;;;19.20;100.00;95394.28;5094834;28;20933;-64
2023/07/08 03:43:18;;;;;;;5.03;1.07;;;;;;;19.29;100.00;95407.72;5094973;28;20437;-64
2023/07/08 03:45:47;;;;;;;1.30;1.20;;;;;;;19.31;100.00;95406.28;5094675;28;20998;-64
2023/07/08 03:48:15;;;;;;;1.73;1.63;;;;;;;19.52;100.00;95406.38;5094851;28;20437;-64
2023/07/08 03:50:44;;;;;;;1.73;1.63;;;;;;;19.62;100.00;95414.88;5094893;28;20436;-64
2023/07/08 03:53:13;;;;;;;0.90;0.90;;;;;;;19.44;100.00;95413.38;5094076;28;20440;-64
2023/07/08 03:55:41;;;;;;;3.80;1.07;;;;;;;19.77;100.00;95408.16;5093761;28;20484;-63
2023/07/08 03:58:11;;;;;;;6.93;1.33;;;;;;;20.11;100.00;95418.72;5092632;28;20517;-63
2023/07/08 04:00:39;;;;;;;0.50;0.50;;;;;;;20.30;100.00;95422.88;5092359;28;20444;-63
2023/07/08 04:03:11;;;;;;;1.40;1.30;;;;;;;19.99;100.00;95429.38;5092639;28;20475;-63
2023/07/08 04:05:40;;;;;;;3.13;1.17;;;;;;;19.73;100.00;95427.97;5092405;28;20519;-64
2023/07/08 04:08:08;;;;;;;3.03;1.80;;;;;;;19.77;100.00;95434.25;5092722;28;20436;-63
2023/07/08 04:10:36;;;;;;;0.83;0.77;;;;;;;19.98;100.00;95438.59;5092598;28;20815;-63
2023/07/08 04:13:05;;;;;;;0.97;0.93;;;;;;;20.01;100.00;95434.47;5094130;28;20441;-62
2023/07/08 04:15:34;;;;;;;1.87;1.77;;;;;;;20.00;100.00;95439.06;5094424;28;20969;-63
2023/07/08 04:18:03;;;;;;;1.60;1.53;;;;;;;19.86;100.00;95432.34;5093961;28;20472;-63
2023/07/08 04:20:32;;;;;;;1.00;0.90;;;;;;;20.13;100.00;95438.03;5094360;28;20517;-62
2023/07/08 04:23:00;;;;;;;1.57;1.47;;;;;;;20.18;100.00;95437.84;5080292;28;20437;-62
2023/07/08 04:25:29;;;;;;;1.13;1.03;;;;;;;20.43;100.00;95444.19;5094133;28;20502;-62
2023/07/08 04:27:57;;;;;;;1.93;1.43;;;;;;;20.35;100.00;95428.88;5093903;28;20480;-62
2023/07/08 04:30:27;;;;;;;0.97;0.97;;;;;;;20.39;100.00;95437.09;5094267;28;20433;-62
2023/07/08 04:32:57;;;;;;;1.50;1.40;;;;;;;20.54;99.35;95433.81;5093042;28;20437;-61
2023/07/08 04:35:25;;;;;;;6.20;1.60;;;;;;;20.56;96.53;95443.13;5092986;28;20827;-61
2023/07/08 04:37:54;;;;;;;4.10;1.53;;;;;;;20.64;96.56;95444.97;5092508;28;20873;-61
2023/07/08 04:40:22;;;;;;;2.40;1.03;;;;;;;20.67;96.82;95446.22;5092234;28;20432;-62
2023/07/08 04:42:53;;;;;;;1.23;1.23;;;;;;;20.82;94.58;95438.31;5092778;28;20437;-62
2023/07/08 04:45:21;;;;;;;1.43;1.33;;;;;;;20.97;95.12;95436.94;5091140;28;20433;-61
2023/07/08 04:47:52;;;;;;;1.87;1.77;;;;;;;20.57;96.56;95395.44;5093324;28;20851;-61
2023/07/08 04:50:23;;;;;;;1.40;1.10;;;;;;;20.78;96.40;95439.31;5092633;28;20493;-64
2023/07/08 04:52:51;;;;;;;2.63;1.93;;;;;;;21.30;100.00;95439.63;5093394;28;20971;-52
2023/07/08 04:55:20;;;;;;;2.03;1.30;;;;;;;21.35;96.51;95448.28;5093170;28;20437;-52
2023/07/08 04:57:48;;;;;;;10.63;2.20;;;;;;;21.41;98.04;95446.94;5093916;28;20436;-53
2023/07/08 05:00:19;;;;;;;4.13;1.83;;;;;;;21.49;95.42;95447.97;5092777;28;20468;-52
2023/07/08 05:02:48;;;;;;;1.20;1.10;;;;;;;21.83;100.00;95446.78;5093106;28;20436;-53
2023/07/08 05:05:16;;;;;;;1.50;1.40;;;;;;;22.07;96.41;95442.19;5093314;28;20449;-52
2023/07/08 05:07:46;;;;;;;1.37;1.27;;;;;;;21.88;88.17;95433.09;5092641;28;20476;-53
2023/07/08 05:10:14;;;;;;;2.97;2.77;;;;;;;22.07;94.36;95442.19;5093329;28;20490;-52
2023/07/08 05:12:43;;;;;;;1.23;1.13;;;;;;;22.22;90.22;95435.31;5093099;28;20985;-52
2023/07/08 05:15:12;;;;;;;0.80;0.70;;;;;;;22.39;100.00;95439.69;5092988;28;20432;-52
2023/07/08 05:17:41;;;;;;;0.80;0.80;;;;;;;22.24;88.55;95441.16;5093050;28;20437;-52
2023/07/08 05:20:12;;;;;;;3.43;1.00;;;;;;;22.71;100.00;95430.63;5093023;28;20443;-52
2023/07/08 05:22:42;;;;;;;2.10;1.90;;;;;;;22.82;86.51;95436.31;5092761;28;20441;-51
2023/07/08 05:25:13;;;;;;;1.60;1.50;;;;;;;22.58;81.16;95440.66;5067465;28;20441;-51
2023/07/08 05:27:41;;;;;;;1.17;1.17;;;;;;;22.57;81.21;95444.47;5092410;28;21047;-51
2023/07/08 05:30:14;;;;;;;1.13;1.03;;;;;;;22.34;81.34;95439.91;5092815;28;20953;-51
2023/07/08 05:32:43;;;;;;;1.93;1.83;;;;;;;22.28;80.68;95443.97;5092477;28;20471;-51
2023/07/08 05:35:11;;;;;;;0.80;0.40;;;;;;;22.67;80.27;95433.22;5092801;28;20437;-51
2023/07/08 05:37:39;;;;;;;0.83;0.83;;;;;;;22.92;79.29;95435.84;5092257;28;20937;-51
2023/07/08 05:40:10;;;;;;;0.80;0.80;;;;;;;22.97;79.33;95436.34;5092223;28;20480;-51
2023/07/08 05:42:40;;;;;;;2.10;2.00;;;;;;;23.06;83.33;95407.25;5092378;28;20461;-51
2023/07/08 05:45:10;;;;;;;1.23;0.90;;;;;;;23.87;86.63;95438.34;5092376;28;20445;-52
2023/07/08 05:47:38;;;;;;;0.70;0.50;;;;;;;23.93;77.59;95443.13;5091971;28;20488;-52
2023/07/08 05:50:08;;;;;;;0.60;0.60;;;;;;;24.20;74.99;95440.69;5092256;28;20441;-52
2023/07/08 05:52:36;;;;;;;1.33;0.90;;;;;;;24.36;76.34;95444.16;5092486;28;20513;-51
2023/07/08 05:55:05;;;;;;;0.80;0.70;;;;;;;24.48;77.36;95441.31;5092449;28;20514;-52
2023/07/08 05:57:34;;;;;;;0.80;0.80;;;;;;;24.54;73.87;95442.63;5092297;28;20474;-52
2023/07/08 06:00:05;;;;;;;0.93;0.50;;;;;;;24.84;73.03;95443.69;5091652;28;20522;-52
2023/07/08 06:02:33;;;;;;;2.77;1.50;;;;;;;24.83;72.75;95438.59;5092144;28;20913;-52
2023/07/08 06:05:01;;;;;;;0.40;0.30;;;;;;;25.21;75.36;95438.56;5092173;28;20446;-53
2023/07/08 06:07:30;;;;;;;1.43;1.30;;;;;;;24.75;69.70;95440.34;5092425;28;20502;-53
2023/07/08 06:09:59;;;;;;;2.10;0.80;;;;;;;24.88;71.00;95439.09;5092451;28;20507;-54
2023/07/08 06:12:27;;;;;;;1.33;0.70;;;;;;;25.30;73.46;95430.22;5091899;28;20437;-53
2023/07/08 06:14:56;;;;;;;1.10;1.00;;;;;;;24.90;69.10;95434.09;5091846;28;20441;-54
2023/07/08 06:17:26;;;;;;;1.90;1.80;;;;;;;25.57;70.87;95435.41;5091864;28;20445;-54
2023/07/08 06:19:54;;;;;;;0.50;0.47;;;;;;;25.83;68.25;95431.97;5091002;28;20493;-54
2023/07/08 06:22:22;;;;;;;0.70;0.70;;;;;;;26.07;69.94;95431.56;5092030;28;20468;-54
2023/07/08 06:25:11;;;;;;;1.30;0.80;;;;;;;26.16;68.50;95434.81;5092040;28;20447;-53
2023/07/08 06:27:39;;;;;;;1.40;1.30;;;;;;;25.64;65.92;95432.00;5091738;28;20908;-54
2023/07/08 06:30:09;;;;;;;0.70;0.70;;;;;;;26.13;65.32;95430.16;5083302;28;20930;-53
2023/07/08 06:32:38;;;;;;;1.87;1.77;;;;;;;26.13;67.99;95429.34;5087654;28;20447;-53
2023/07/08 06:35:08;;;;;;;1.60;1.23;;;;;;;26.37;61.02;95435.16;5091920;28;20437;-54
2023/07/08 06:37:36;;;;;;;0.60;0.60;;;;;;;26.30;61.00;95436.97;5078597;28;20471;-54
2023/07/08 06:40:05;;;;;;;1.17;1.17;;;;;;;26.26;60.73;95434.19;5092377;28;20874;-54
2023/07/08 06:42:33;;;;;;;1.30;1.30;;;;;;;26.16;61.69;95432.09;5091882;28;20498;-53
2023/07/08 06:45:03;;;;;;;1.07;1.07;;;;;;;26.66;64.18;95436.31;5091440;28;20494;-54
2023/07/08 06:47:31;;;;;;;0.93;0.80;;;;;;;26.84;59.77;95425.72;5091827;28;20467;-54
2023/07/08 06:50:02;;;;;;;1.30;1.20;;;;;;;27.03;62.70;95439.13;5091595;28;20432;-53
2023/07/08 06:52:34;;;;;;;0.63;0.63;;;;;;;26.79;58.17;95432.22;5091509;28;20432;-54
2023/07/08 06:55:03;;;;;;;0.40;0.30;;;;;;;27.46;58.36;95430.31;5091252;28;20476;-54
2023/07/08 06:57:32;;;;;;;0.73;0.50;;;;;;;27.80;56.90;95430.25;5063637;28;20462;-53
2023/07/08 07:00:01;;;;;;;1.13;0.80;;;;;;;27.63;56.34;95440.59;5089707;28;20468;-53
2023/07/08 07:02:29;;;;;;;0.70;0.60;;;;;;;27.51;57.20;95438.16;5093178;28;20440;-53
2023/07/08 07:04:58;;;;;;;1.10;1.03;;;;;;;27.31;58.23;95446.84;5095547;28;20436;-54
2023/07/08 07:07:27;;;;;;;0.40;0.40;;;;;;;27.66;58.82;95444.50;5095541;28;20932;-54
2023/07/08 07:09:56;;;;;;;0.93;0.93;;;;;;;27.73;56.31;95437.19;5095048;28;20554;-55
2023/07/08 07:12:25;;;;;;;1.20;1.10;;;;;;;28.03;57.22;95434.34;5086093;28;20444;-55
2023/07/08 07:14:53;;;;;;;1.80;1.23;;;;;;;28.42;53.61;95436.56;5090837;28;21301;-55
2023/07/08 07:17:22;;;;;;;1.57;1.47;;;;;;;28.29;51.72;95438.81;5095036;28;20493;-55
2023/07/08 07:19:52;;;;;;;0.50;0.47;;;;;;;28.66;54.35;95425.84;5095507;28;20462;-54
2023/07/08 07:22:20;;;;;;;1.40;1.30;;;;;;;28.38;51.74;95435.78;5084939;28;20536;-54
2023/07/08 07:24:50;;;;;;;1.10;0.97;;;;;;;28.88;53.35;95429.44;5092513;28;20944;-54
2023/07/08 07:27:19;;;;;;;0.97;0.90;;;;;;;29.21;50.23;95433.88;5095267;28;20439;-54
2023/07/08 07:29:49;;;;;;;0.80;0.60;;;;;;;28.84;53.92;95415.78;5095121;28;20862;-54
2023/07/08 07:32:19;;;;;;;0.63;0.63;;;;;;;29.18;50.30;95437.34;5094801;28;20798;-54
2023/07/08 07:34:48;;;;;;;1.40;1.30;;;;;;;28.58;51.38;95440.56;5095056;28;20851;-54
2023/07/08 07:37:19;;;;;;;1.27;0.70;;;;;;;28.78;51.30;95428.25;5094956;28;20436;-54
2023/07/08 07:39:48;;;;;;;0.90;0.60;;;;;;;28.69;51.79;95424.31;5069143;28;20448;-54
2023/07/08 07:42:21;;;;;;;1.63;1.63;;;;;;;29.04;52.00;95418.22;5094110;28;20436;-54
2023/07/08 07:44:49;;;;;;;1.03;0.93;;;;;;;29.29;47.98;95425.34;5095162;28;20437;-54
2023/07/08 07:47:17;;;;;;;1.20;1.10;;;;;;;29.09;50.21;95418.63;5094649;28;20443;-54
2023/07/08 07:49:46;;;;;;;0.93;0.80;;;;;;;29.71;49.48;95415.66;5095282;28;20491;-54
2023/07/08 07:52:15;;;;;;;1.60;0.90;;;;;;;29.97;50.15;95416.09;5094379;28;20937;-54
2023/07/08 07:54:44;;;;;;;1.17;0.67;;;;;;;29.62;49.19;95404.34;5094666;28;20436;-54
2023/07/08 07:57:12;;;;;;;0.67;0.60;;;;;;;29.69;48.77;95405.13;5094676;28;20864;-54
2023/07/08 07:59:42;;;;;;;0.60;0.53;;;;;;;30.25;49.41;95414.50;5094512;28;20554;-54
2023/07/08 08:02:11;;;;;;;0.50;0.50;;;;;;;30.52;48.10;95412.91;5094743;28;20523;-54
2023/07/08 08:04:40;;;;;;;0.50;0.50;;;;;;;30.71;48.97;95415.97;5094396;28;20497;-54
2023/07/08 08:07:09;;;;;;;0.63;0.63;;;;;;;30.33;45.77;95405.91;5094217;28;20440;-53
2023/07/08 08:09:38;;;;;;;1.23;1.13;;;;;;;29.93;49.22;95409.81;5093991;28;20482;-54
2023/07/08 08:12:10;;;;;;;0.50;0.50;;;;;;;30.66;47.90;95407.44;5094299;28;20447;-53
2023/07/08 08:14:39;;;;;;;0.70;0.70;;;;;;;30.98;49.54;95405.38;5093067;28;20432;-53
2023/07/08 08:17:09;;;;;;;0.63;0.63;;;;;;;31.45;45.00;95412.19;5094057;28;20436;-59
2023/07/08 08:19:37;;;;;;;0.67;0.50;;;;;;;31.93;46.84;95417.72;5093832;28;20455;-53
2023/07/08 08:22:05;;;;;;;0.93;0.67;;;;;;;32.06;46.63;95415.31;5094347;28;20444;-54
2023/07/08 08:24:34;;;;;;;1.07;0.97;;;;;;;32.34;41.53;95406.81;5094077;28;20896;-55
2023/07/08 08:27:03;;;;;;;2.23;1.00;;;;;;;31.91;45.63;95395.44;5094029;28;20440;-55
2023/07/08 08:29:31;;;;;;;0.90;0.90;;;;;;;32.55;44.02;95407.44;5094192;28;20560;-53
2023/07/08 08:31:59;;;;;;;1.60;0.83;;;;;;;32.99;39.98;95406.53;5093976;28;20496;-54
2023/07/08 08:34:29;;;;;;;2.87;0.50;;;;;;;32.57;41.77;95412.50;5093806;28;20531;-54
2023/07/08 08:36:57;;;;;;;0.43;0.40;;;;;;;33.22;42.06;95414.13;5094308;28;20467;-53
2023/07/08 08:39:29;;;;;;;0.47;0.40;;;;;;;32.90;43.71;95408.22;5093861;28;20433;-53
2023/07/08 08:41:58;;;;;;;0.70;0.70;;;;;;;32.43;41.51;95409.88;5093772;28;21017;-53
2023/07/08 08:44:33;;;;;;;0.70;0.40;;;;;;;32.78;43.77;95412.28;5093262;28;20435;-54
2023/07/08 08:47:07;;;;;;;1.27;1.17;;;;;;;31.91;42.71;95403.66;5093946;28;20435;-53
2023/07/08 08:49:42;;;;;;;0.83;0.67;;;;;;;32.34;44.07;95407.59;5069132;28;20475;-54
2023/07/08 08:52:11;;;;;;;0.87;0.60;;;;;;;31.90;45.34;95397.38;5093456;28;20527;-54
2023/07/08 08:54:40;;;;;;;1.00;0.90;;;;;;;32.24;41.41;95403.00;5093363;28;20446;-54
2023/07/08 08:57:25;;;;;;;0.40;0.40;;;;;;;32.79;43.29;95400.09;5093627;28;20470;-53
2023/07/08 08:59:55;;;;;;;1.17;1.07;;;;;;;33.23;41.51;95394.47;5093016;28;20991;-53
2023/07/08 09:02:38;;;;;;;0.93;0.93;;;;;;;32.98;39.67;95395.97;5093430;28;20439;-53
2023/07/08 09:05:10;;;;;;;0.50;0.50;;;;;;;33.34;39.61;95386.09;5093314;28;20450;-54
2023/07/08 09:07:46;;;;;;;0.60;0.43;;;;;;;33.12;39.86;95390.31;5093130;28;20439;-54
2023/07/08 09:10:26;;;;;;;0.80;0.80;;;;;;;32.67;38.08;95378.66;5093325;28;20498;-54
2023/07/08 09:12:58;;;;;;;2.30;1.10;;;;;;;33.10;38.58;95374.25;5093529;28;20488;-54
2023/07/08 09:15:27;;;;;;;0.43;0.40;;;;;;;33.77;38.43;95378.81;5093639;28;20432;-54
2023/07/08 09:18:02;;;;;;;0.50;0.50;;;;;;;34.35;37.46;95374.72;5092984;28;20506;-54
2023/07/08 09:20:36;;;;;;;1.47;0.80;;;;;;;33.97;39.88;95369.84;5093018;28;20436;-54
2023/07/08 09:23:12;;;;;;;0.40;0.40;;;;;;;34.70;37.19;95370.53;5089495;28;20443;-54
2023/07/08 09:25:47;;;;;;;0.40;0.40;;;;;;;33.88;35.18;95362.91;5084394;28;20435;-54
2023/07/08 09:28:15;;;;;;;0.70;0.70;;;;;;;33.54;39.66;95362.25;5092783;28;20435;-54
2023/07/08 09:30:48;;;;;;;0.93;0.90;;;;;;;33.45;37.66;95347.44;5092576;28;20475;-54
2023/07/08 09:33:17;;;;;;;0.50;0.50;;;;;;;33.52;38.52;95353.63;5067913;28;20444;-58
2023/07/08 09:35:49;;;;;;;0.60;0.60;;;;;;;33.98;38.93;95344.66;5092968;28;20440;-58
2023/07/08 09:38:21;;;;;;;0.47;0.47;;;;;;;33.45;35.80;95342.75;5092629;28;20447;-58
2023/07/08 09:40:53;;;;;;;0.70;0.70;;;;;;;32.03;35.83;95290.75;5091994;28;20440;-57
2023/07/08 09:43:27;;;;;;;0.70;0.40;;;;;;;33.27;35.75;95341.47;5092083;28;20461;-57
2023/07/08 09:45:59;;;;;;;1.80;0.50;;;;;;;33.64;35.49;95342.09;5091913;28;20866;-57
2023/07/08 09:48:30;;;;;;;0.63;0.53;;;;;;;33.70;34.40;95334.91;5092392;28;20440;-58
2023/07/08 09:51:01;;;;;;;0.60;0.60;;;;;;;34.12;33.41;95332.66;5092311;28;20498;-63
2023/07/08 09:53:30;;;;;;;0.60;0.47;;;;;;;34.16;33.93;95330.63;5092293;28;20947;-65
2023/07/08 09:56:00;;;;;;;0.50;0.30;;;;;;;34.54;34.16;95325.56;5092137;28;20812;-65
2023/07/08 09:58:32;;;;;;;1.53;0.67;;;;;;;34.28;30.92;95313.53;5091818;28;20229;-66
2023/07/08 10:01:10;;;;;;;0.50;0.30;;;;;;;34.76;33.57;95322.00;5092475;28;20194;-67
2023/07/08 10:03:39;;;;;;;0.43;0.43;;;;;;;34.49;35.33;95310.34;5092442;28;20436;-66
2023/07/08 10:06:20;;;;;;;0.90;0.30;;;;;;;35.09;36.55;95307.16;5092025;28;20190;-65
2023/07/08 10:08:49;;;;;;;0.40;0.40;;;;;;;35.20;34.26;95314.41;5092154;28;20189;-66
2023/07/08 10:11:26;;;;;;;0.40;0.40;;;;;;;34.26;35.61;95293.88;5092074;28;20221;-65
2023/07/08 10:13:57;;;;;;;2.07;0.67;;;;;;;34.17;36.13;95313.72;5092417;28;20192;-67
2023/07/08 10:16:41;;;;;;;0.50;0.50;;;;;;;34.78;33.18;95303.09;5091645;28;20189;-66
2023/07/08 10:19:14;;;;;;;0.60;0.60;;;;;;;34.40;35.60;95296.38;5091752;28;20225;-67
2023/07/08 10:21:52;;;;;;;0.50;0.40;;;;;;;34.69;33.09;95299.34;5092125;28;20190;-66
2023/07/08 10:24:37;;;;;;;2.73;0.50;;;;;;;34.75;32.36;95289.41;5091985;28;20193;-66
2023/07/08 10:27:14;;;;;;;0.53;0.40;;;;;;;34.54;30.90;95282.31;5092467;28;20233;-67
2023/07/08 10:29:53;;;;;;;0.60;0.60;;;;;;;34.39;34.66;95273.56;5091926;28;20217;-66
2023/07/08 10:32:36;;;;;;;2.63;0.40;;;;;;;34.70;34.06;95282.41;5092165;28;20531;-65
2023/07/08 10:35:16;;;;;;;0.40;0.37;;;;;;;34.83;33.80;95285.28;5092005;28;20606;-65
2023/07/08 10:37:57;;;;;;;0.40;0.40;;;;;;;34.84;31.29;95273.09;5091006;28;20523;-65
2023/07/08 10:40:41;;;;;;;1.03;1.03;;;;;;;35.25;32.91;95247.75;5091567;28;20661;-64
2023/07/08 10:43:32;;;;;;;0.40;0.40;;;;;;;35.86;33.08;95262.41;5092162;28;20201;-63
2023/07/08 10:46:14;;;;;;;1.03;0.93;;;;;;;35.87;34.11;95261.22;5091358;28;20225;-63
2023/07/08 10:49:16;;;;;;;0.43;0.43;;;;;;;35.75;32.71;95259.13;5091382;28;20577;-62
2023/07/08 10:51:54;;;;;;;0.47;0.30;;;;;;;35.89;31.74;95247.75;5091407;28;20208;-64
2023/07/08 10:54:42;;;;;;;0.40;0.30;;;;;;;36.24;31.41;95255.09;5092029;28;20566;-64
2023/07/08 10:57:25;;;;;;;0.52;0.40;;;;;;;36.65;33.78;95259.13;5091867;28;20229;-64
2023/07/08 11:00:03;;;;;;;0.30;0.30;;;;;;;36.91;30.84;95258.69;5091346;28;20278;-64
2023/07/08 11:03:11;;;;;;;0.60;0.50;;;;;;;36.78;28.87;95262.69;5091562;28;20209;-65
2023/07/08 11:05:45;;;;;;;1.13;0.40;;;;;;;36.34;30.79;95256.00;5065632;28;20580;-65
2023/07/08 11:08:25;;;;;;;0.50;0.40;;;;;;;36.76;31.12;95246.53;5090406;28;20762;-66
2023/07/08 11:11:02;;;;;;;0.68;0.50;;;;;;;36.01;29.59;95240.75;5091534;28;20217;-67
2023/07/08 11:13:50;;;;;;;0.40;0.30;;;;;;;36.56;30.58;95234.13;5091179;28;20549;-66
2023/07/08 11:16:25;;;;;;;0.60;0.60;;;;;;;36.64;31.21;95235.44;5091051;28;20666;-67
2023/07/08 11:19:03;;;;;;;0.45;0.45;;;;;;;36.55;32.32;95227.84;5091767;28;20189;-66
2023/07/08 11:21:38;;;;;;;0.57;0.50;;;;;;;36.86;30.11;95225.34;5091402;28;20193;-67
2023/07/08 11:24:14;;;;;;;0.30;0.30;;;;;;;36.88;29.84;95222.91;5091414;28;20246;-65
2023/07/08 11:26:49;;;;;;;0.30;0.28;;;;;;;37.08;29.42;95209.66;5091607;28;20186;-64
2023/07/08 11:29:21;;;;;;;0.73;0.47;;;;;;;37.44;29.27;95221.16;5091385;28;20280;-64
2023/07/08 11:31:52;;;;;;;0.30;0.25;;;;;;;37.43;29.74;95225.13;5091593;28;20218;-64
2023/07/08 11:34:22;;;;;;;0.60;0.40;;;;;;;37.21;30.84;95221.50;5091045;28;20276;-66
2023/07/08 11:36:52;;;;;;;0.30;0.20;;;;;;;36.52;29.51;95220.44;5091290;28;20193;-67
2023/07/08 11:39:34;;;;;;;0.63;0.60;;;;;;;34.38;32.27;95222.47;5091166;28;20193;-67
2023/07/08 11:42:17;;;;;;;0.70;0.50;;;;;;;34.61;31.21;95216.13;5090891;28;20650;-66
2023/07/08 11:44:51;;;;;;;0.95;0.30;;;;;;;34.62;33.25;95214.16;5091614;28;20190;-65
2023/07/08 11:47:27;;;;;;;0.40;0.40;;;;;;;35.67;30.17;95210.91;5091008;28;20196;-65